Time;durP1;ratioP1;P1;durP2;ratioP2;P2;SDS_P1;SDS_P2;PMS_P1;PMS_P2;Temp;Humidity;BMP_temperature;BMP_pressure;BME280_temperature;BME280_humidity;BME280_pressure;Samples;Min_cycle;Max_cycle;Signal;HPM_P1;HPM_P2
2022/08/17 00:00:59;;;;;;;7.28;5.50;;;24.50;99.90;;;;;;5110818;28;20059;-46
2022/08/17 00:03:31;;;;;;;6.50;5.28;;;24.50;99.90;;;;;;5101546;28;20059;-48
2022/08/17 00:06:19;;;;;;;7.05;5.00;;;24.40;99.90;;;;;;5101709;28;20024;-48
2022/08/17 00:08:49;;;;;;;5.72;5.05;;;24.40;99.90;;;;;;5101795;28;20119;-48
2022/08/17 00:11:24;;;;;;;9.02;4.90;;;24.40;99.90;;;;;;5113540;28;20106;-47
2022/08/17 00:13:56;;;;;;;8.77;4.82;;;24.40;99.90;;;;;;5083725;28;20597;-47
2022/08/17 00:16:31;;;;;;;8.05;5.13;;;24.40;99.90;;;;;;5101522;28;20020;-47
2022/08/17 00:18:59;;;;;;;7.40;6.03;;;24.40;99.90;;;;;;5101387;28;20027;-47
2022/08/17 00:21:26;;;;;;;9.10;5.45;;;24.40;99.90;;;;;;5112308;28;20060;-48
2022/08/17 00:23:52;;;;;;;6.35;5.57;;;24.30;99.90;;;;;;5106727;28;20021;-46
2022/08/17 00:26:19;;;;;;;6.93;4.80;;;24.20;99.90;;;;;;5104993;28;20406;-46
2022/08/17 00:28:44;;;;;;;6.03;4.90;;;24.00;99.90;;;;;;5068704;28;20528;-47
2022/08/17 00:31:11;;;;;;;8.23;5.50;;;23.90;99.90;;;;;;5093271;28;20115;-49
2022/08/17 00:33:39;;;;;;;13.10;9.60;;;23.90;99.90;;;;;;5052776;28;20440;-46
2022/08/17 00:36:06;;;;;;;21.65;16.05;;;23.80;99.90;;;;;;5099837;28;20090;-46
2022/08/17 00:38:33;;;;;;;23.17;19.08;;;23.70;99.90;;;;;;5082525;28;20046;-47
2022/08/17 00:41:07;;;;;;;18.23;14.70;;;23.60;99.90;;;;;;5103235;28;20042;-46
2022/08/17 00:43:45;;;;;;;14.52;11.75;;;23.70;99.90;;;;;;5104888;28;20043;-48
2022/08/17 00:46:21;;;;;;;12.15;9.90;;;23.80;99.90;;;;;;5066348;28;20043;-48
2022/08/17 00:48:47;;;;;;;12.85;9.43;;;23.90;99.90;;;;;;5089308;28;20032;-46
2022/08/17 00:51:38;;;;;;;11.95;9.70;;;23.90;99.90;;;;;;5105021;28;20114;-46
2022/08/17 00:54:11;;;;;;;9.18;7.65;;;23.90;99.90;;;;;;5104915;28;20040;-47
2022/08/17 00:56:47;;;;;;;10.73;8.63;;;24.00;99.90;;;;;;5065991;28;20097;-47
2022/08/17 00:59:17;;;;;;;13.50;9.27;;;24.00;99.90;;;;;;5106981;28;20035;-49
2022/08/17 01:01:44;;;;;;;9.77;7.22;;;24.10;99.90;;;;;;5095655;28;20024;-48
2022/08/17 01:04:12;;;;;;;8.90;6.65;;;24.00;99.90;;;;;;5101781;28;20383;-48
2022/08/17 01:06:39;;;;;;;10.55;7.80;;;;;;;;;;5104328;28;20435;-46
2022/08/17 01:09:05;;;;;;;10.55;7.95;;;22.80;99.90;;;;;;5102705;28;20055;-46
2022/08/17 01:11:31;;;;;;;10.35;7.55;;;22.90;99.90;;;;;;5102006;28;20063;-47
2022/08/17 01:13:57;;;;;;;8.68;6.80;;;22.90;99.90;;;;;;5103313;28;20035;-46
2022/08/17 01:16:27;;;;;;;8.50;7.53;;;23.00;99.90;;;;;;5098661;28;20490;-47
2022/08/17 01:18:58;;;;;;;8.02;6.40;;;23.10;99.90;;;;;;5103958;28;20059;-47
2022/08/17 01:21:42;;;;;;;8.93;7.03;;;23.30;99.90;;;;;;5102194;28;20035;-47
2022/08/17 01:24:09;;;;;;;7.35;6.47;;;23.30;99.90;;;;;;5103155;28;20058;-48
2022/08/17 01:26:36;;;;;;;7.90;5.85;;;23.30;99.90;;;;;;5093306;28;20020;-46
2022/08/17 01:29:04;;;;;;;7.35;6.50;;;23.40;99.90;;;;;;5103859;28;20172;-47
2022/08/17 01:31:35;;;;;;;8.43;7.63;;;23.30;99.90;;;;;;5092781;28;20034;-47
2022/08/17 01:34:06;;;;;;;11.02;7.47;;;23.30;99.90;;;;;;5101626;28;20126;-48
2022/08/17 01:36:32;;;;;;;9.00;7.00;;;23.40;99.90;;;;;;5100040;28;20035;-46
2022/08/17 01:38:58;;;;;;;7.72;6.95;;;23.40;99.90;;;;;;5101832;28;20924;-46
2022/08/17 01:41:26;;;;;;;9.63;7.25;;;23.40;99.90;;;;;;5097656;28;20032;-46
2022/08/17 01:43:57;;;;;;;9.82;6.70;;;23.50;99.90;;;;;;5103318;28;20048;-48
2022/08/17 01:46:26;;;;;;;;;;;23.50;99.90;;;;;;5067112;28;20112;-47
2022/08/17 01:48:52;;;;;;;11.48;7.28;;;23.40;99.90;;;;;;5098040;28;20336;-47
2022/08/17 01:51:19;;;;;;;13.18;7.03;;;23.30;99.90;;;;;;5098720;28;20024;-46
2022/08/17 01:53:50;;;;;;;11.32;7.60;;;23.30;99.90;;;;;;5103254;28;20437;-46
2022/08/17 01:56:20;;;;;;;9.05;6.90;;;23.30;99.90;;;;;;5071991;28;20081;-48
2022/08/17 01:58:46;;;;;;;11.40;7.10;;;23.40;99.90;;;;;;5057589;28;20042;-48
2022/08/17 02:01:15;;;;;;;8.30;6.18;;;23.30;99.90;;;;;;5051849;28;20035;-48
2022/08/17 02:03:41;;;;;;;11.02;6.65;;;23.20;99.90;;;;;;5103186;28;20020;-47
2022/08/17 02:06:07;;;;;;;9.52;6.47;;;23.30;99.90;;;;;;5017843;28;20040;-47
2022/08/17 02:08:34;;;;;;;9.32;6.03;;;23.20;99.90;;;;;;5094600;28;20119;-46
2022/08/17 02:11:07;;;;;;;9.52;6.30;;;23.20;99.90;;;;;;5103547;28;20036;-47
2022/08/17 02:13:34;;;;;;;8.25;5.43;;;23.20;99.90;;;;;;5103463;28;20036;-47
2022/08/17 02:16:00;;;;;;;9.13;6.32;;;23.20;99.90;;;;;;5100670;28;20024;-47
2022/08/17 02:18:27;;;;;;;11.95;6.15;;;23.20;99.90;;;;;;5100833;28;20055;-47
2022/08/17 02:20:53;;;;;;;8.00;5.63;;;23.20;99.90;;;;;;5101290;28;20029;-46
2022/08/17 02:23:22;;;;;;;10.25;5.93;;;23.20;99.90;;;;;;5103840;28;20387;-47
2022/08/17 02:25:48;;;;;;;8.95;5.63;;;23.20;99.90;;;;;;5103247;28;20080;-48
2022/08/17 02:28:16;;;;;;;8.13;5.55;;;23.20;99.90;;;;;;5100851;28;20024;-47
2022/08/17 02:30:42;;;;;;;6.47;5.50;;;23.10;99.90;;;;;;5096399;28;20032;-48
2022/08/17 02:33:08;;;;;;;8.02;5.78;;;23.10;99.90;;;;;;5101210;28;20094;-46
2022/08/17 02:35:36;;;;;;;8.65;5.80;;;23.10;99.90;;;;;;5102222;28;20682;-46
2022/08/17 02:38:03;;;;;;;8.35;6.32;;;23.10;99.90;;;;;;5100443;28;20055;-46
2022/08/17 02:40:29;;;;;;;10.10;6.60;;;23.00;99.90;;;;;;5099219;28;20043;-47
2022/08/17 02:42:55;;;;;;;8.38;6.03;;;23.10;99.90;;;;;;5101600;28;20027;-47
2022/08/17 02:45:24;;;;;;;9.88;6.63;;;23.00;99.90;;;;;;5103770;28;20051;-47
2022/08/17 02:47:50;;;;;;;10.20;7.38;;;23.00;99.90;;;;;;5106986;28;20479;-47
2022/08/17 02:50:19;;;;;;;9.23;7.25;;;23.10;99.90;;;;;;5104282;28;20028;-46
2022/08/17 02:52:46;;;;;;;11.68;7.03;;;23.00;99.90;;;;;;5099411;28;20020;-48
2022/08/17 02:55:22;;;;;;;10.57;6.68;;;23.10;99.90;;;;;;5105208;28;20032;-47
2022/08/17 02:57:48;;;;;;;9.15;6.70;;;23.10;99.90;;;;;;5070540;28;20539;-46
2022/08/17 03:00:21;;;;;;;9.68;6.60;;;23.00;99.90;;;;;;5104295;28;20483;-48
2022/08/17 03:02:47;;;;;;;6.80;5.93;;;23.00;99.90;;;;;;5104211;28;20482;-52
2022/08/17 03:05:16;;;;;;;10.18;6.22;;;22.90;99.90;;;;;;5102952;28;20032;-48
2022/08/17 03:07:42;;;;;;;8.85;6.97;;;22.90;99.90;;;;;;5099285;28;20027;-46
2022/08/17 03:10:09;;;;;;;7.45;5.50;;;22.90;99.90;;;;;;5106904;28;20341;-48
2022/08/17 03:12:38;;;;;;;9.70;6.32;;;22.90;99.90;;;;;;5105104;28;20388;-46
2022/08/17 03:15:07;;;;;;;7.35;5.13;;;22.50;99.90;;;;;;5041640;28;20088;-47
2022/08/17 03:17:33;;;;;;;9.10;5.28;;;22.40;99.90;;;;;;5005411;28;20038;-47
2022/08/17 03:19:59;;;;;;;10.98;5.22;;;22.10;99.90;;;;;;5011671;28;20462;-48
2022/08/17 03:22:28;;;;;;;7.35;5.28;;;;;;;;;;5011712;28;20561;-46
2022/08/17 03:24:55;;;;;;;7.75;5.40;;;21.90;99.90;;;;;;5012213;28;20030;-47
2022/08/17 03:27:21;;;;;;;9.43;5.70;;;21.70;99.90;;;;;;5011826;28;20044;-46
2022/08/17 03:29:47;;;;;;;8.75;6.18;;;21.60;99.90;;;;;;4995762;28;20556;-48
2022/08/17 03:32:15;;;;;;;8.38;5.80;;;21.60;99.90;;;;;;5008164;28;20038;-47
2022/08/17 03:34:41;;;;;;;10.50;6.00;;;21.80;99.90;;;;;;5011495;28;20046;-47
2022/08/17 03:37:07;;;;;;;9.38;6.35;;;22.00;99.90;;;;;;5011380;28;20549;-47
2022/08/17 03:39:33;;;;;;;9.98;6.53;;;22.10;99.90;;;;;;5011546;28;20100;-46
2022/08/17 03:42:06;;;;;;;7.70;6.38;;;;;;;;;;5011442;28;20501;-48
2022/08/17 03:44:32;;;;;;;11.70;6.78;;;22.30;99.90;;;;;;4985791;28;20088;-47
2022/08/17 03:57:55;;;;;;;8.38;5.53;;;;;;;;;;5003676;28;20094;-48
2022/08/17 04:00:22;;;;;;;8.43;5.80;;;;;;;;;;5039287;28;20129;-47
2022/08/17 04:02:48;;;;;;;9.77;5.50;;;;;;;;;;5038772;28;20049;-48
2022/08/17 04:05:14;;;;;;;6.35;5.30;;;;;;;;;;5040466;28;20048;-47
2022/08/17 04:07:40;;;;;;;8.25;6.38;;;;;;;;;;5039312;28;20087;-47
2022/08/17 04:10:07;;;;;;;6.68;5.90;;;;;;;;;;5042298;28;20087;-46
2022/08/17 04:12:43;;;;;;;8.38;6.25;;;;;;;;;;5003527;28;20037;-48
2022/08/17 04:15:11;;;;;;;8.25;6.35;;;;;;;;;;5061110;28;20514;-47
2022/08/17 04:17:37;;;;;;;9.48;5.85;;;24.20;99.90;;;;;;5097345;28;20055;-47
2022/08/17 04:20:04;;;;;;;10.25;6.20;;;22.60;99.90;;;;;;5101384;28;20039;-48
2022/08/17 04:22:30;;;;;;;8.35;6.72;;;22.60;99.90;;;;;;5066716;28;20043;-46
2022/08/17 04:24:56;;;;;;;9.35;6.25;;;22.40;99.90;;;;;;5103105;28;20027;-47
2022/08/17 04:27:22;;;;;;;8.60;5.40;;;22.30;99.90;;;;;;5066480;28;20064;-46
2022/08/17 04:29:48;;;;;;;11.18;6.00;;;22.20;99.90;;;;;;5058927;28;20454;-48
2022/08/17 04:32:14;;;;;;;7.38;5.85;;;22.10;99.90;;;;;;5103023;28;20028;-47
2022/08/17 04:34:39;;;;;;;8.98;5.65;;;22.30;99.90;;;;;;5102517;28;20039;-47
2022/08/17 04:37:06;;;;;;;8.02;5.55;;;22.40;99.90;;;;;;5019228;28;20071;-47
2022/08/17 04:39:32;;;;;;;10.25;5.88;;;22.50;99.90;;;;;;5068644;28;20040;-47
2022/08/17 04:42:07;;;;;;;10.20;6.05;;;22.50;99.90;;;;;;5075158;28;20081;-48
2022/08/17 04:44:34;;;;;;;7.50;4.97;;;22.60;99.90;;;;;;5104358;28;20555;-47
2022/08/17 04:47:00;;;;;;;7.20;5.43;;;22.90;99.90;;;;;;5101695;28;20032;-48
2022/08/17 04:49:26;;;;;;;8.90;4.95;;;22.90;99.90;;;;;;5076160;28;20093;-46
2022/08/17 04:51:51;;;;;;;12.85;5.78;;;22.80;99.90;;;;;;5040649;28;20032;-46
2022/08/17 04:54:20;;;;;;;8.10;5.50;;;22.70;99.90;;;;;;5104568;28;20426;-47
2022/08/17 04:56:46;;;;;;;7.63;5.47;;;22.70;99.90;;;;;;5104508;28;20506;-45
2022/08/17 04:59:15;;;;;;;6.63;4.90;;;22.70;99.90;;;;;;5103906;28;20528;-47
2022/08/17 05:01:44;;;;;;;11.25;5.55;;;22.70;99.90;;;;;;5095597;28;20051;-46
2022/08/17 05:04:15;;;;;;;6.32;5.35;;;22.90;99.90;;;;;;5103747;28;20089;-46
2022/08/17 05:06:41;;;;;;;12.60;5.07;;;23.10;99.90;;;;;;5102060;28;20135;-46
2022/08/17 05:09:07;;;;;;;9.35;5.13;;;23.30;99.90;;;;;;5101613;28;20091;-47
2022/08/17 05:11:34;;;;;;;6.57;5.35;;;23.50;99.90;;;;;;5106706;28;20443;-46
2022/08/17 05:14:00;;;;;;;6.72;5.18;;;23.70;99.90;;;;;;5093164;28;20024;-47
2022/08/17 05:16:27;;;;;;;8.95;5.38;;;23.80;99.90;;;;;;5067586;28;20036;-48
2022/08/17 05:18:53;;;;;;;14.93;7.10;;;24.00;99.90;;;;;;5035172;28;20052;-46
2022/08/17 05:21:21;;;;;;;13.15;7.25;;;24.00;99.90;;;;;;5043009;28;20095;-48
2022/08/17 05:23:48;;;;;;;14.55;6.72;;;24.20;99.90;;;;;;5031972;28;20033;-47
2022/08/17 05:26:17;;;;;;;9.13;4.72;;;24.20;99.90;;;;;;5037371;28;20053;-48
2022/08/17 05:28:43;;;;;;;8.98;5.28;;;24.30;99.90;;;;;;5037415;28;20049;-46
2022/08/17 05:31:09;;;;;;;10.93;4.53;;;24.40;99.90;;;;;;5049448;28;20378;-48
2022/08/17 05:33:38;;;;;;;6.88;4.43;;;24.50;99.90;;;;;;5040962;28;20621;-47
2022/08/17 05:36:06;;;;;;;7.25;4.32;;;24.60;99.90;;;;;;5035745;28;20367;-48
2022/08/17 05:38:32;;;;;;;7.80;4.68;;;24.80;99.90;;;;;;5004733;28;20079;-47
2022/08/17 05:40:59;;;;;;;7.00;4.30;;;24.90;99.90;;;;;;5009789;28;20071;-47
2022/08/17 05:43:31;;;;;;;9.50;4.57;;;25.00;99.90;;;;;;5035232;28;20148;-47
2022/08/17 05:46:16;;;;;;;8.20;4.07;;;24.90;99.90;;;;;;5062577;28;20025;-48
2022/08/17 05:48:45;;;;;;;6.25;4.55;;;;;;;;;;5060144;28;20056;-47
2022/08/17 05:51:41;;;;;;;7.78;4.63;;;25.10;99.90;;;;;;5106178;28;20085;-48
2022/08/17 05:54:25;;;;;;;7.95;4.57;;;25.30;99.90;;;;;;5103565;28;20027;-47
2022/08/17 05:57:00;;;;;;;7.72;4.30;;;25.50;99.90;;;;;;5094638;28;20088;-47
2022/08/17 05:59:33;;;;;;;7.53;4.70;;;25.50;99.90;;;;;;5084075;28;20040;-47
2022/08/17 06:02:20;;;;;;;9.10;4.95;;;25.60;99.90;;;;;;5099609;28;20153;-48
2022/08/17 06:05:08;;;;;;;6.75;4.20;;;25.80;99.90;;;;;;5103853;28;20031;-47
2022/08/17 06:07:41;;;;;;;9.02;4.47;;;25.90;99.90;;;;;;5105989;28;20039;-46
2022/08/17 06:10:15;;;;;;;7.30;4.13;;;25.90;99.90;;;;;;5101478;28;20036;-47
2022/08/17 06:12:50;;;;;;;7.97;4.82;;;26.10;99.90;;;;;;5101181;28;20024;-47
2022/08/17 06:15:29;;;;;;;6.15;4.25;;;;;;;;;;5098780;28;20036;-48
2022/08/17 06:18:00;;;;;;;7.78;4.00;;;26.40;99.90;;;;;;5099849;28;20027;-47
2022/08/17 06:20:34;;;;;;;10.17;4.27;;;26.40;99.90;;;;;;5084692;28;20032;-48
2022/08/17 06:23:13;;;;;;;7.20;3.90;;;26.50;99.90;;;;;;5103803;28;20074;-46
2022/08/17 06:25:50;;;;;;;8.52;4.47;;;;;;;;;;5101626;28;20039;-48
2022/08/17 06:28:29;;;;;;;6.93;3.80;;;26.60;99.90;;;;;;5102608;28;20360;-50
2022/08/17 06:31:02;;;;;;;10.05;4.95;;;26.70;99.90;;;;;;5104076;27;20101;-45
2022/08/17 06:33:45;;;;;;;7.82;4.13;;;26.80;99.90;;;;;;5074273;28;20039;-46
2022/08/17 06:36:27;;;;;;;8.52;4.18;;;26.90;99.90;;;;;;5092259;28;20052;-47
2022/08/17 06:39:07;;;;;;;6.97;4.00;;;27.10;99.90;;;;;;5083529;28;20039;-44
2022/08/17 06:41:44;;;;;;;8.88;4.38;;;27.10;99.90;;;;;;5092837;28;20035;-46
2022/08/17 06:44:20;;;;;;;12.45;3.80;;;27.20;99.90;;;;;;5092680;28;20064;-45
2022/08/17 06:46:51;;;;;;;9.20;4.15;;;27.20;99.90;;;;;;5092332;28;20024;-44
2022/08/17 06:49:43;;;;;;;;;;;27.20;99.90;;;;;;5064780;28;20206;-45
2022/08/17 06:52:27;;;;;;;8.73;3.90;;;27.40;99.90;;;;;;5043150;28;20393;-45
2022/08/17 06:55:08;;;;;;;7.70;4.07;;;27.40;99.90;;;;;;5089201;28;20069;-45
2022/08/17 06:57:46;;;;;;;9.27;4.45;;;27.40;99.90;;;;;;5089321;28;20068;-45
2022/08/17 07:00:15;;;;;;;6.90;4.40;;;;;;;;;;5089687;28;20060;-44
2022/08/17 07:02:54;;;;;;;33.17;6.40;;;27.60;99.90;;;;;;5092215;28;20036;-46
2022/08/17 07:05:26;;;;;;;7.43;3.85;;;27.80;99.90;;;;;;5092155;28;20119;-44
2022/08/17 07:08:11;;;;;;;6.20;3.92;;;;;;;;;;5092125;28;20107;-45
2022/08/17 07:10:45;;;;;;;5.63;3.85;;;;;;;;;;5058002;28;20036;-46
2022/08/17 07:13:24;;;;;;;7.88;3.60;;;;;;;;;;5088907;28;20118;-46
2022/08/17 07:15:53;;;;;;;9.90;4.18;;;;;;;;;;5054392;28;20048;-45
2022/08/17 07:18:20;;;;;;;12.30;3.95;;;;;;;;;;5090574;28;20036;-45
2022/08/17 07:20:52;;;;;;;6.85;3.75;;;27.90;99.90;;;;;;5088988;28;20488;-45
2022/08/17 07:23:18;;;;;;;7.28;3.78;;;;;;;;;;5090331;28;20063;-44
2022/08/17 07:25:44;;;;;;;7.25;3.65;;;;;;;;;;5090311;28;20032;-45
2022/08/17 07:28:11;;;;;;;7.35;3.72;;;28.20;99.90;;;;;;5087947;28;20033;-45
2022/08/17 07:30:47;;;;;;;6.05;4.25;;;;;;;;;;5089724;28;20067;-45
2022/08/17 07:33:28;;;;;;;7.63;4.53;;;;;;;;;;5101629;28;20039;-46
2022/08/17 07:35:56;;;;;;;6.70;4.00;;;;;;;;;;5107127;28;20097;-45
2022/08/17 07:38:27;;;;;;;6.53;3.75;;;;;;;;;;5109649;28;20498;-45
2022/08/17 07:40:56;;;;;;;6.55;4.18;;;;;;;;;;5108322;28;20032;-44
2022/08/17 07:43:34;;;;;;;5.20;4.10;;;;;;;;;;5105907;27;20071;-45
2022/08/17 07:49:02;;;;;;;12.82;5.00;;;29.10;99.90;;;;;;5107243;28;20120;-45
2022/08/17 07:51:32;;;;;;;8.23;4.07;;;29.10;99.90;;;;;;5103387;28;20618;-45
2022/08/17 07:54:02;;;;;;;8.45;4.35;;;29.30;99.90;;;;;;5108868;28;20127;-45
2022/08/17 07:56:33;;;;;;;7.82;4.35;;;29.30;99.90;;;;;;5106730;28;20028;-45
2022/08/17 07:59:23;;;;;;;13.60;3.92;;;29.40;99.90;;;;;;5105083;28;20028;-45
2022/08/17 08:02:04;;;;;;;10.75;4.75;;;29.50;99.90;;;;;;5104102;28;20024;-45
2022/08/17 08:04:43;;;;;;;11.00;4.38;;;29.60;99.90;;;;;;5104411;28;20115;-45
2022/08/17 08:07:25;;;;;;;9.85;4.70;;;29.70;99.90;;;;;;5105502;28;20103;-45
2022/08/17 08:10:09;;;;;;;6.65;3.88;;;29.80;99.90;;;;;;5103612;28;20118;-45
2022/08/17 08:12:45;;;;;;;6.78;4.30;;;29.80;99.90;;;;;;5105945;28;20067;-45
2022/08/17 08:15:17;;;;;;;6.95;4.78;;;;;;;;;;5058839;28;20055;-45
2022/08/17 08:17:54;;;;;;;15.80;5.35;;;30.20;99.90;;;;;;5091336;28;20043;-46
2022/08/17 08:20:30;;;;;;;8.38;4.20;;;;;;;;;;5103813;28;20403;-46
2022/08/17 08:22:56;;;;;;;9.60;4.43;;;;;;;;;;5107024;28;20035;-45
2022/08/17 08:25:25;;;;;;;16.83;4.95;;;;;;;;;;5100022;28;20024;-45
2022/08/17 08:27:54;;;;;;;9.50;4.75;;;30.50;99.90;;;;;;5073537;28;20044;-46
2022/08/17 08:30:21;;;;;;;9.85;4.50;;;;;;;;;;5113948;28;20078;-46
2022/08/17 08:33:07;;;;;;;7.15;4.20;;;;;;;;;;5107620;28;20034;-46
2022/08/17 08:35:57;;;;;;;6.55;3.97;;;30.70;99.90;;;;;;5103243;28;20042;-46
2022/08/17 08:38:29;;;;;;;10.25;4.43;;;;;;;;;;5095615;28;20031;-45
2022/08/17 08:41:19;;;;;;;6.28;3.78;;;31.30;99.90;;;;;;5102290;28;20051;-46
2022/08/17 08:43:57;;;;;;;8.70;3.85;;;31.10;99.90;;;;;;5104543;28;20054;-46
2022/08/17 08:46:41;;;;;;;7.82;4.65;;;31.10;99.90;;;;;;5059404;28;20040;-45
2022/08/17 08:49:25;;;;;;;8.70;4.13;;;;;;;;;;5072677;28;20494;-45
2022/08/17 08:51:54;;;;;;;10.35;4.30;;;;;;;;;;5103402;28;20131;-45
2022/08/17 08:54:52;;;;;;;7.47;3.63;;;32.00;99.90;;;;;;5092863;28;20495;-45
2022/08/17 08:57:32;;;;;;;6.53;3.90;;;31.90;99.90;;;;;;5110686;28;20016;-46
2022/08/17 09:00:13;;;;;;;10.45;5.18;;;32.10;99.70;;;;;;5106871;28;20502;-46
2022/08/17 09:02:57;;;;;;;12.13;4.68;;;;;;;;;;5102375;28;20391;-46
2022/08/17 09:05:42;;;;;;;9.73;3.83;;;;;;;;;;5102343;28;20032;-45
2022/08/17 09:08:17;;;;;;;6.15;3.72;;;;;;;;;;5102599;28;20031;-46
2022/08/17 09:10:55;;;;;;;7.15;3.92;;;;;;;;;;5099996;28;20141;-45
2022/08/17 09:13:41;;;;;;;9.43;4.50;;;32.70;99.90;;;;;;5107732;28;20070;-45
2022/08/17 09:16:19;;;;;;;6.68;3.90;;;32.70;98.30;;;;;;5105055;28;20042;-46
2022/08/17 09:18:51;;;;;;;7.57;3.70;;;32.60;97.50;;;;;;5104152;28;20088;-46
2022/08/17 09:21:25;;;;;;;6.70;3.15;;;32.60;97.10;;;;;;5067803;28;20096;-46
2022/08/17 09:24:03;;;;;;;7.22;4.07;;;;;;;;;;5103286;28;20122;-45
2022/08/17 09:26:30;;;;;;;7.57;3.70;;;;;;;;;;5103423;28;20075;-45
2022/08/17 09:29:00;;;;;;;4.55;2.85;;;;;;;;;;5093138;28;20031;-46
2022/08/17 09:31:35;;;;;;;6.07;3.17;;;;;;;;;;5103971;28;20031;-45
2022/08/17 09:34:27;;;;;;;5.25;2.78;;;;;;;;;;5103865;28;20076;-45
2022/08/17 09:37:16;;;;;;;8.52;3.45;;;33.40;99.90;;;;;;5064211;28;20039;-46
2022/08/17 09:39:51;;;;;;;4.50;2.58;;;33.40;94.00;;;;;;5065325;28;20039;-45
2022/08/17 09:42:28;;;;;;;5.47;3.03;;;;;;;;;;5104012;28;20476;-46
2022/08/17 09:45:09;;;;;;;9.85;3.50;;;;;;;;;;5094892;28;20083;-46
2022/08/17 09:47:49;;;;;;;4.50;3.20;;;33.90;94.40;;;;;;5103651;28;20030;-45
2022/08/17 09:50:20;;;;;;;6.65;3.35;;;;;;;;;;5103702;28;20050;-45
2022/08/17 09:52:46;;;;;;;;;;;;;;;;;;5103426;28;20035;-45
2022/08/17 09:55:12;;;;;;;5.72;3.50;;;;;;;;;;5102332;28;19915;-47
2022/08/17 09:57:54;;;;;;;4.55;2.97;;;;;;;;;;5102257;28;20542;-46
2022/08/17 10:00:22;;;;;;;;;;;;;;;;;;5059468;28;20040;-45
2022/08/17 10:03:08;;;;;;;4.10;2.90;;;34.30;92.00;;;;;;5103596;28;19907;-46
2022/08/17 10:05:45;;;;;;;4.00;2.67;;;;;;;;;;5103614;28;20039;-45
2022/08/17 10:08:34;;;;;;;6.35;2.75;;;34.80;93.30;;;;;;5103818;28;20088;-45
2022/08/17 10:11:21;;;;;;;4.82;2.70;;;34.60;91.10;;;;;;5066967;28;20040;-45
2022/08/17 10:13:55;;;;;;;3.53;2.83;;;34.40;95.00;;;;;;5104505;28;20031;-46
2022/08/17 10:16:44;;;;;;;5.88;3.00;;;34.70;96.30;;;;;;5105907;28;20374;-46
2022/08/17 10:19:39;;;;;;;6.50;2.88;;;34.70;96.70;;;;;;5098609;28;20081;-45
2022/08/17 10:28:57;;;;;;;5.47;2.95;;;34.90;97.10;;;;;;4986374;28;20101;-46
2022/08/17 10:31:31;;;;;;;6.65;2.85;;;35.00;96.00;;;;;;4987642;28;20038;-46
2022/08/17 10:34:08;;;;;;;6.47;2.88;;;35.40;90.50;;;;;;4988857;28;20133;-46
2022/08/17 10:36:53;;;;;;;4.50;3.15;;;35.40;89.40;;;;;;4989137;28;20042;-46
2022/08/17 10:39:58;;;;;;;6.75;2.88;;;35.40;88.70;;;;;;4988956;28;20049;-46
2022/08/17 10:42:35;;;;;;;6.47;2.53;;;35.50;87.70;;;;;;4955289;28;20035;-46
2022/08/17 10:45:25;;;;;;;4.88;2.60;;;35.70;87.30;;;;;;4959012;28;20050;-45
2022/08/17 10:48:20;;;;;;;3.53;2.28;;;36.10;87.70;;;;;;4947064;28;20376;-46
2022/08/17 10:50:56;;;;;;;5.43;2.53;;;36.60;86.20;;;;;;4919731;29;20041;-45
2022/08/17 10:53:30;;;;;;;4.70;2.22;;;36.60;85.00;;;;;;4921475;29;20040;-45
2022/08/17 10:56:12;;;;;;;6.15;2.55;;;36.60;85.20;;;;;;4921044;29;20071;-44
2022/08/17 10:58:43;;;;;;;6.22;2.85;;;36.70;85.00;;;;;;4919875;29;20036;-46
2022/08/17 11:01:11;;;;;;;5.78;3.17;;;36.10;84.90;;;;;;4927536;29;20039;-46
2022/08/17 11:03:54;;;;;;;3.33;2.17;;;35.40;84.90;;;;;;4949793;28;20490;-44
2022/08/17 11:06:46;;;;;;;5.57;2.50;;;35.20;84.80;;;;;;4981230;28;20534;-44
2022/08/17 11:09:29;;;;;;;4.20;2.38;;;35.10;84.20;;;;;;4980713;28;20075;-45
2022/08/17 11:12:23;;;;;;;4.38;2.75;;;35.40;84.30;;;;;;4982565;28;20046;-44
2022/08/17 11:15:18;;;;;;;8.38;2.75;;;36.10;83.70;;;;;;4992900;28;20038;-45
2022/08/17 11:17:48;;;;;;;4.68;2.42;;;36.50;84.70;;;;;;4984747;28;21697;-45
2022/08/17 11:20:19;;;;;;;5.97;2.92;;;37.20;83.00;;;;;;5051399;28;20033;-45
2022/08/17 11:23:07;;;;;;;3.33;2.63;;;37.30;82.90;;;;;;5078155;28;20040;-46
2022/08/17 11:25:47;;;;;;;5.72;2.95;;;;;;;;;;5114610;28;20047;-49
2022/08/17 11:28:21;;;;;;;4.38;2.78;;;37.70;96.40;;;;;;5114422;28;20019;-47
2022/08/17 11:31:01;;;;;;;5.90;3.00;;;37.60;93.10;;;;;;5114378;28;20506;-47
2022/08/17 11:33:33;;;;;;;4.60;2.60;;;37.50;90.20;;;;;;5114429;28;20123;-47
2022/08/17 11:36:22;;;;;;;6.97;3.03;;;37.60;81.50;;;;;;5114588;28;20031;-47
2022/08/17 11:39:45;;;;;;;5.65;2.65;;;37.60;81.10;;;;;;5108033;28;20030;-47
2022/08/17 11:42:45;;;;;;;7.20;2.60;;;37.10;81.20;;;;;;5011339;28;20038;-47
2022/08/17 11:45:45;;;;;;;2.40;2.00;;;37.40;81.00;;;;;;5027690;28;20788;-47
2022/08/17 11:51:44;;;;;;;6.05;3.00;;;37.40;80.00;;;;;;4971463;28;20069;-48
2022/08/17 11:54:29;;;;;;;5.07;2.42;;;37.70;80.30;;;;;;4968711;28;20085;-49
2022/08/17 11:57:19;;;;;;;6.20;2.80;;;37.20;80.00;;;;;;4971143;28;20039;-46
2022/08/17 11:59:46;;;;;;;3.47;2.60;;;37.00;79.70;;;;;;4968395;28;20046;-48
2022/08/17 12:02:30;;;;;;;4.75;2.40;;;36.60;79.80;;;;;;4970412;28;20039;-46
2022/08/17 12:05:13;;;;;;;5.32;3.13;;;37.00;80.20;;;;;;4969023;28;20047;-48
2022/08/17 12:08:17;;;;;;;4.57;2.92;;;37.10;80.00;;;;;;4967884;28;20495;-45
2022/08/17 12:11:15;;;;;;;3.75;3.22;;;37.30;79.90;;;;;;4894199;29;20041;-48
2022/08/17 12:13:53;;;;;;;5.15;2.72;;;37.80;78.70;;;;;;4913621;29;20067;-46
2022/08/17 12:16:20;;;;;;;8.05;2.70;;;;;;;;;;4931850;29;20107;-48
2022/08/17 12:19:01;;;;;;;5.30;2.75;;;38.20;94.00;;;;;;4931974;29;20043;-47
2022/08/17 12:21:34;;;;;;;3.95;2.72;;;37.60;95.30;;;;;;4933367;29;20090;-46
2022/08/17 12:24:19;;;;;;;3.15;2.42;;;38.00;95.60;;;;;;4933371;29;20130;-47
2022/08/17 12:26:50;;;;;;;4.60;2.50;;;;;;;;;;4933318;29;20515;-48
2022/08/17 12:29:17;;;;;;;8.77;2.70;;;;;;;;;;5019271;28;20033;-47
2022/08/17 12:31:46;;;;;;;4.10;2.70;;;;;;;;;;4994980;28;20041;-49
2022/08/17 12:34:15;;;;;;;3.40;2.47;;;;;;;;;;5021209;28;20051;-47
2022/08/17 12:36:41;;;;;;;5.30;2.65;;;;;;;;;;5023059;28;20092;-47
2022/08/17 12:39:08;;;;;;;5.53;2.83;;;;;;;;;;5013600;28;20536;-49
2022/08/17 12:41:37;;;;;;;4.32;2.88;;;;;;;;;;5022001;28;20066;-48
2022/08/17 12:44:37;;;;;;;4.75;2.75;;;;;;;;;;5020723;28;20085;-46
2022/08/17 12:47:16;;;;;;;6.32;2.65;;;38.60;90.00;;;;;;5014902;28;20041;-48
2022/08/17 12:49:43;;;;;;;5.75;2.40;;;38.10;79.70;;;;;;5049714;28;20041;-49
2022/08/17 12:52:19;;;;;;;5.40;2.50;;;37.80;87.60;;;;;;5045384;28;20037;-47
2022/08/17 12:55:00;;;;;;;5.63;2.42;;;37.60;76.80;;;;;;5043442;28;20052;-48
2022/08/17 12:57:31;;;;;;;6.20;2.50;;;37.90;80.70;;;;;;5033557;28;20053;-47
2022/08/17 13:00:06;;;;;;;4.90;2.78;;;38.30;88.70;;;;;;5039545;28;20079;-49
2022/08/17 13:02:46;;;;;;;3.78;2.60;;;38.30;76.30;;;;;;5034308;28;20107;-47
2022/08/17 13:05:17;;;;;;;4.22;3.05;;;38.20;77.10;;;;;;4998861;28;20065;-46
2022/08/17 13:07:45;;;;;;;5.32;2.85;;;;;;;;;;5002922;28;20038;-46
2022/08/17 13:10:20;;;;;;;6.75;2.92;;;38.90;77.00;;;;;;5009463;28;20065;-47
2022/08/17 13:12:48;;;;;;;6.95;2.90;;;38.50;78.30;;;;;;4973914;28;20042;-48
2022/08/17 13:15:25;;;;;;;4.15;2.45;;;38.50;78.70;;;;;;5006958;28;20053;-47
2022/08/17 13:18:19;;;;;;;4.72;2.67;;;38.50;79.10;;;;;;5009492;28;20033;-47
2022/08/17 13:20:54;;;;;;;4.15;2.58;;;38.60;79.90;;;;;;4951810;28;20479;-47
2022/08/17 13:23:20;;;;;;;4.15;2.65;;;38.40;81.40;;;;;;4984858;28;20092;-48
2022/08/17 13:25:59;;;;;;;6.15;2.90;;;38.60;83.00;;;;;;4977956;28;20034;-47
2022/08/17 13:28:26;;;;;;;5.65;2.80;;;;;;;;;;4990887;28;20030;-49
2022/08/17 13:31:12;;;;;;;5.40;2.35;;;38.80;75.50;;;;;;4994565;28;20526;-48
2022/08/17 13:33:38;;;;;;;4.95;2.72;;;39.40;90.50;;;;;;4994618;28;20040;-46
2022/08/17 13:36:06;;;;;;;5.07;2.70;;;39.40;84.60;;;;;;5011603;28;20045;-46
2022/08/17 13:38:49;;;;;;;2.95;2.20;;;;;;;;;;5017816;28;20040;-48
2022/08/17 13:41:35;;;;;;;6.53;2.67;;;39.70;90.80;;;;;;5048508;28;20083;-48
2022/08/17 13:44:03;;;;;;;3.85;2.55;;;;;;;;;;5044508;28;20098;-46
2022/08/17 13:46:31;;;;;;;4.85;2.70;;;39.90;94.20;;;;;;5043077;28;20040;-48
2022/08/17 13:49:08;;;;;;;7.15;2.92;;;39.70;90.40;;;;;;5034609;28;20045;-47
2022/08/17 13:51:45;;;;;;;3.92;2.85;;;39.20;93.90;;;;;;5034347;28;20207;-46
2022/08/17 13:54:38;;;;;;;3.53;2.75;;;39.20;93.70;;;;;;5039523;28;20611;-49
2022/08/17 13:57:24;;;;;;;4.65;2.90;;;39.50;93.70;;;;;;5049097;28;20039;-47
2022/08/17 13:59:57;;;;;;;3.95;3.05;;;39.70;90.40;;;;;;5069919;28;20121;-48
2022/08/17 14:02:23;;;;;;;8.95;2.97;;;39.50;90.00;;;;;;5097777;28;20032;-46
2022/08/17 14:04:49;;;;;;;6.05;2.80;;;39.50;90.10;;;;;;5106495;28;20433;-48
2022/08/17 14:07:17;;;;;;;6.55;3.30;;;39.00;86.40;;;;;;5101502;28;20031;-46